createdAt,value
2022-09-12T00:01:35.467Z,12.8
2022-09-12T00:03:41.847Z,12.7
2022-09-12T00:05:48.352Z,12.6
2022-09-12T00:07:54.641Z,12.6
2022-09-12T00:10:01.057Z,12.6
2022-09-12T00:12:10.285Z,12.6
2022-09-12T00:14:16.692Z,12.7
2022-09-12T00:16:23.207Z,12.5
2022-09-12T00:20:55.683Z,12.4
2022-09-12T00:27:17.712Z,12.4
2022-09-12T00:29:24.086Z,12.4
2022-09-12T00:31:30.580Z,12.5
2022-09-12T00:39:59.032Z,12.5
2022-09-12T00:44:11.658Z,12.5
2022-09-12T00:46:18.060Z,12.4
2022-09-12T00:48:24.429Z,12.3
2022-09-12T00:54:46.453Z,12.3
2022-09-12T00:56:52.865Z,12.3
2022-09-12T00:58:59.232Z,12.4
2022-09-12T01:01:05.688Z,12.3
2022-09-12T01:05:18.438Z,12.2
2022-09-12T01:07:24.829Z,12.3
2022-09-12T01:11:40.447Z,12.2
2022-09-12T01:13:46.842Z,12.2
2022-09-12T01:14:51.440Z,12.1
2022-09-12T01:16:57.837Z,12.2
2022-09-12T01:21:10.573Z,12.1
2022-09-12T01:23:19.801Z,12.1
2022-09-12T01:25:26.210Z,12.1
2022-09-12T01:27:32.595Z,12.2
2022-09-12T01:29:38.982Z,12.2
2022-09-12T01:31:45.388Z,12.1
2022-09-12T01:33:51.759Z,12.1
2022-09-12T01:35:58.173Z,12.1
2022-09-12T01:38:08.970Z,12
2022-09-12T01:44:28.092Z,12
2022-09-12T01:46:34.462Z,12.1
2022-09-12T01:48:40.963Z,11.9
2022-09-12T01:55:06.488Z,11.9
2022-09-12T01:57:09.293Z,12
2022-09-12T01:59:15.672Z,11.8
2022-09-12T02:01:22.153Z,11.9
2022-09-12T02:03:28.466Z,11.8
2022-09-12T02:05:34.848Z,11.8
2022-09-12T02:13:01.480Z,11.6
2022-09-12T02:15:07.881Z,11.6
2022-09-12T02:17:14.275Z,11.5
2022-09-12T02:19:20.662Z,11.6
2022-09-12T02:21:29.878Z,11.5
2022-09-12T02:23:36.243Z,11.5
2022-09-12T02:25:42.644Z,11.5
2022-09-12T02:27:49.060Z,11.6
2022-09-12T02:29:55.420Z,11.4
2022-09-12T02:32:01.780Z,11.4
2022-09-12T02:34:08.194Z,11.3
2022-09-12T02:38:23.807Z,11.3
2022-09-12T02:42:36.578Z,11.3
2022-09-12T02:44:42.983Z,11.3
2022-09-12T02:46:49.358Z,11.3
2022-09-12T02:48:55.760Z,11.3
2022-09-12T02:51:05.021Z,11.4
2022-09-12T02:53:11.422Z,11.2
2022-09-12T02:55:17.768Z,11.3
2022-09-12T02:57:24.154Z,11.2
2022-09-12T02:59:30.559Z,11.2
2022-09-12T03:01:37.036Z,11.1
2022-09-12T03:07:58.956Z,11.1
2022-09-12T03:10:05.318Z,11.3
2022-09-12T03:13:16.314Z,11.2
2022-09-12T03:15:22.710Z,11.2
2022-09-12T03:17:29.089Z,11.2
2022-09-12T03:21:44.708Z,11
2022-09-12T03:23:51.102Z,11.1
2022-09-12T03:25:57.495Z,11.1
2022-09-12T03:28:03.907Z,11.2
2022-09-12T03:30:10.279Z,11.1
2022-09-12T03:32:16.692Z,11.2
2022-09-12T03:34:25.922Z,11.3
2022-09-12T03:38:38.680Z,11.1
2022-09-12T03:40:45.083Z,11.1
2022-09-12T03:42:51.456Z,11.2
2022-09-12T03:44:57.876Z,11.1
2022-09-12T03:47:06.968Z,11.1
2022-09-12T03:49:13.474Z,11.1
2022-09-12T03:51:19.866Z,11.1
2022-09-12T03:53:26.267Z,11.2
2022-09-12T03:55:32.684Z,11.1
2022-09-12T03:57:39.010Z,11.2
2022-09-12T03:59:45.416Z,11.2
2022-09-12T04:04:01.019Z,11.2
2022-09-12T04:06:07.354Z,11.2
2022-09-12T04:10:46.973Z,11.1
2022-09-12T04:17:07.535Z,11.2
2022-09-12T04:19:13.922Z,11.2
2022-09-12T04:21:20.322Z,11
2022-09-12T04:23:26.779Z,11.1
2022-09-12T04:29:45.860Z,11.1
2022-09-12T04:31:55.106Z,11
2022-09-12T04:34:01.476Z,11.1
2022-09-12T04:36:07.872Z,10.9
2022-09-12T04:38:14.249Z,11
2022-09-12T04:40:20.629Z,11
2022-09-12T04:42:27.036Z,11
2022-09-12T04:44:33.378Z,11.1
2022-09-12T04:46:42.600Z,11.2
2022-09-12T04:48:52.203Z,11.1
2022-09-12T04:50:55.354Z,11.1
2022-09-12T04:57:14.503Z,11.3
2022-09-12T05:05:42.904Z,11.3
2022-09-12T05:06:47.502Z,11.3
2022-09-12T05:08:53.876Z,11.3
2022-09-12T05:11:00.252Z,11.4
2022-09-12T05:13:06.648Z,11.3
2022-09-12T05:17:22.256Z,11.3
2022-09-12T05:21:35.035Z,11.4
2022-09-12T05:25:47.821Z,11.4
2022-09-12T05:27:54.223Z,11.5
2022-09-12T05:32:09.812Z,11.5
2022-09-12T05:34:16.188Z,11.6
2022-09-12T05:38:28.947Z,11.7
2022-09-12T05:40:35.328Z,11.7
2022-09-12T05:42:41.726Z,11.8
2022-09-12T05:44:50.923Z,11.8
2022-09-12T05:46:57.298Z,11.8
2022-09-12T05:49:03.698Z,11.8
2022-09-12T05:51:10.083Z,11.9
2022-09-12T05:53:16.449Z,12
2022-09-12T05:55:22.841Z,12
2022-09-12T05:57:29.235Z,12.1
2022-09-12T05:59:38.454Z,12.2
2022-09-12T06:01:44.903Z,12.3
2022-09-12T06:03:51.258Z,12.3
2022-09-12T06:04:55.862Z,12.4
2022-09-12T06:09:08.627Z,12.5
2022-09-12T06:11:15.021Z,12.5
2022-09-12T06:13:24.234Z,12.6
2022-09-12T06:15:30.620Z,12.7
2022-09-12T06:17:36.977Z,12.7
2022-09-12T06:19:43.392Z,12.8
2022-09-12T06:21:49.919Z,12.8
2022-09-12T06:23:56.166Z,12.8
2022-09-12T06:26:02.547Z,12.8
2022-09-12T06:28:11.744Z,12.9
2022-09-12T06:30:20.359Z,12.9
2022-09-12T06:32:24.518Z,13
2022-09-12T06:34:30.908Z,13.1
2022-09-12T06:36:37.265Z,13
2022-09-12T06:38:43.700Z,13.1
2022-09-12T06:40:50.024Z,13.1
2022-09-12T06:43:09.346Z,13.1
2022-09-12T06:45:05.652Z,13.1
2022-09-12T06:47:12.030Z,13.2
2022-09-12T06:49:18.399Z,13.2
2022-09-12T06:51:24.796Z,13.3
2022-09-12T06:53:31.224Z,13.4
2022-09-12T06:57:46.852Z,13.7
2022-09-12T07:03:04.254Z,14
2022-09-12T07:07:17.060Z,14.3
2022-09-12T07:09:23.491Z,14.4
2022-09-12T07:11:32.699Z,14.5
2022-09-12T07:15:45.459Z,14.6
2022-09-12T07:19:58.275Z,15
2022-09-12T07:22:04.676Z,14.9
2022-09-12T07:24:11.285Z,14.7
2022-09-12T07:26:20.327Z,14.9
2022-09-12T07:28:26.715Z,15
2022-09-12T07:30:33.129Z,15.3
2022-09-12T07:32:39.462Z,15.3
2022-09-12T07:34:45.866Z,15.2
2022-09-12T07:36:52.263Z,15.3
2022-09-12T07:38:58.662Z,15.4
2022-09-12T07:41:07.898Z,15.6
2022-09-12T07:43:15.805Z,15.7
2022-09-12T07:45:22.071Z,15.8
2022-09-12T07:47:28.472Z,15.9
2022-09-12T07:49:34.851Z,16.1
2022-09-12T07:51:41.419Z,16.2
2022-09-12T07:53:47.668Z,16.2
2022-09-12T07:55:56.673Z,16.8
2022-09-12T07:58:02.968Z,17.1
2022-09-12T08:00:09.254Z,17.6
2022-09-12T08:02:33.438Z,17.1
2022-09-12T08:06:45.985Z,16.7
2022-09-12T08:08:54.987Z,17.4
2022-09-12T08:11:01.272Z,17.8
2022-09-12T08:15:13.827Z,18.1
2022-09-12T08:19:26.415Z,17.8
2022-09-12T08:23:41.719Z,18.2
2022-09-12T08:25:47.987Z,18.2
2022-09-12T08:27:54.260Z,18.2
2022-09-12T08:32:06.836Z,18
2022-09-12T08:34:13.103Z,17.9
2022-09-12T08:36:19.379Z,18.2
2022-09-12T08:38:28.387Z,18.5
2022-09-12T08:40:34.668Z,18.6
2022-09-12T08:44:47.266Z,18.9
2022-09-12T08:46:53.550Z,19.2
2022-09-12T08:48:59.803Z,19.2
2022-09-12T08:51:06.091Z,19.4
2022-09-12T08:53:15.168Z,19.5
2022-09-12T08:57:27.663Z,19.4
2022-09-12T08:58:32.185Z,19.6
2022-09-12T09:00:38.441Z,19.6
2022-09-12T09:02:44.728Z,19.6
2022-09-12T09:09:06.223Z,19.9
2022-09-12T09:15:25.004Z,20.3
2022-09-12T09:21:46.530Z,21.2
2022-09-12T09:23:52.769Z,21.3
2022-09-12T09:25:59.019Z,21.2
2022-09-12T09:28:05.271Z,21.4
2022-09-12T09:30:11.519Z,21
2022-09-12T09:32:17.732Z,21.4
2022-09-12T09:34:23.963Z,22.7
2022-09-12T09:36:32.924Z,24
2022-09-12T09:38:39.150Z,24.6
2022-09-12T09:40:45.368Z,24.7
2022-09-12T09:42:51.543Z,24.7
2022-09-12T09:44:57.736Z,25.3
2022-09-12T09:47:03.924Z,25.6
2022-09-12T09:49:10.066Z,25.3
2022-09-12T09:51:19.012Z,25.6
2022-09-12T09:53:25.150Z,26
2022-09-12T09:55:31.280Z,25.5
2022-09-12T09:58:41.924Z,26.2
2022-09-12T10:02:53.942Z,26.1
2022-09-12T10:07:08.506Z,26.3
2022-09-12T10:09:14.446Z,26.2
2022-09-12T10:13:26.261Z,26.5
2022-09-12T10:15:32.224Z,25.9
2022-09-12T10:17:38.089Z,26.5
2022-09-12T10:19:55.968Z,26.8
2022-09-12T10:21:52.518Z,27
2022-09-12T10:23:58.388Z,26.8
2022-09-12T10:26:04.261Z,26.5
2022-09-12T10:28:10.087Z,26.5
2022-09-12T10:30:15.945Z,26.8
2022-09-12T10:32:21.768Z,26.7
2022-09-12T10:36:36.110Z,27
2022-09-12T10:38:41.926Z,25.9
2022-09-12T10:40:47.753Z,26.1
2022-09-12T10:42:53.538Z,26.1
2022-09-12T10:44:59.345Z,25.9
2022-09-12T10:47:05.154Z,25.9
2022-09-12T10:49:13.659Z,25.8
2022-09-12T10:51:19.456Z,25.6
2022-09-12T10:54:29.544Z,26.1
2022-09-12T10:56:35.299Z,26
2022-09-12T10:58:41.107Z,25.8
2022-09-12T11:00:46.920Z,26
2022-09-12T11:02:55.419Z,25.7
2022-09-12T11:05:01.206Z,25.6
2022-09-12T11:07:06.990Z,25.8
2022-09-12T11:09:12.791Z,26
2022-09-12T11:11:18.578Z,26.5
2022-09-12T11:13:24.380Z,26.2
2022-09-12T11:17:38.660Z,25.5
2022-09-12T11:19:44.442Z,25.8
2022-09-12T11:21:50.219Z,26.3
2022-09-12T11:23:56.017Z,25.9
2022-09-12T11:28:07.605Z,25.4
2022-09-12T11:30:13.374Z,25.8
2022-09-12T11:32:21.847Z,25.1
2022-09-12T11:34:27.632Z,24.8
2022-09-12T11:38:39.223Z,25.5
2022-09-12T11:40:45.002Z,25.4
2022-09-12T11:42:50.791Z,25.6
2022-09-12T11:44:56.595Z,26
2022-09-12T11:49:10.885Z,26
2022-09-12T11:51:16.683Z,25.7
2022-09-12T11:57:44.954Z,25.5
2022-09-12T11:59:53.481Z,25.9
2022-09-12T12:01:59.353Z,25.9
2022-09-12T12:04:05.088Z,25.3
2022-09-12T12:06:10.907Z,25.3
2022-09-12T12:08:16.734Z,25.4
2022-09-12T12:10:22.533Z,25.5
2022-09-12T12:12:28.535Z,25.4
2022-09-12T12:14:36.873Z,26.1
2022-09-12T12:16:42.691Z,26
2022-09-12T12:18:48.516Z,26.4
2022-09-12T12:20:54.339Z,26.7
2022-09-12T12:25:05.954Z,26.4
2022-09-12T12:27:11.768Z,26.4
2022-09-12T12:29:20.292Z,26.5
2022-09-12T12:31:26.165Z,26.7
2022-09-12T12:33:31.908Z,27.1
2022-09-12T12:35:37.728Z,27.3
2022-09-12T12:37:43.524Z,27.6
2022-09-12T12:39:49.440Z,26.8
2022-09-12T12:41:55.207Z,26.6
2022-09-12T12:44:03.744Z,27.1
2022-09-12T12:46:09.573Z,27.2
2022-09-12T12:48:15.352Z,27.6
2022-09-12T12:49:19.598Z,28.1
2022-09-12T12:57:45.588Z,27.1
2022-09-12T13:01:57.278Z,27.2
2022-09-12T13:04:03.044Z,27.9
2022-09-12T13:06:08.877Z,27.7
2022-09-12T13:08:14.698Z,27.9
2022-09-12T13:10:20.529Z,28.3
2022-09-12T13:12:29.040Z,28.1
2022-09-12T13:14:34.890Z,28.5
2022-09-12T13:16:40.761Z,28.2
2022-09-12T13:18:46.706Z,28.2
2022-09-12T13:20:52.387Z,28.7
2022-09-12T13:22:58.255Z,29.5
2022-09-12T13:25:04.056Z,29
2022-09-12T13:29:18.451Z,28.4
2022-09-12T13:31:24.652Z,27.6
2022-09-12T13:33:30.151Z,27.1
2022-09-12T13:35:35.975Z,27
2022-09-12T13:37:41.814Z,28
2022-09-12T13:39:47.744Z,29.4
2022-09-12T13:41:56.249Z,29.5
2022-09-12T13:44:02.108Z,29.6
2022-09-12T13:49:19.587Z,28.8
2022-09-12T13:51:25.407Z,29.5
2022-09-12T13:53:31.280Z,29.4
2022-09-12T13:55:39.838Z,27.8
2022-09-12T13:57:45.671Z,27.8
2022-09-12T13:59:51.544Z,27
2022-09-12T14:01:57.494Z,27.3
2022-09-12T14:04:03.302Z,27.8
2022-09-12T14:06:09.152Z,27.8
2022-09-12T14:08:15.057Z,27.7
2022-09-12T14:10:23.640Z,28.5
2022-09-12T14:12:29.563Z,28.4
2022-09-12T14:14:35.421Z,28.3
2022-09-12T14:16:41.313Z,28.7
2022-09-12T14:18:47.342Z,29
2022-09-12T14:20:53.128Z,29.8
2022-09-12T14:22:59.000Z,30.1
2022-09-12T14:25:07.593Z,29
2022-09-12T14:27:13.489Z,28.7
2022-09-12T14:31:25.384Z,29.3
2022-09-12T14:33:31.193Z,28.5
2022-09-12T14:35:40.258Z,27.7
2022-09-12T14:37:43.009Z,27.7
2022-09-12T14:41:57.509Z,27.4
2022-09-12T14:44:03.414Z,27.8
2022-09-12T14:47:13.642Z,28.3
2022-09-12T14:49:19.565Z,28.4
2022-09-12T14:53:34.104Z,28
2022-09-12T14:55:40.020Z,27.8
2022-09-12T14:57:45.956Z,28.1
2022-09-12T14:59:51.894Z,27.3
2022-09-12T15:01:57.984Z,27.4
2022-09-12T15:04:03.985Z,27.5
2022-09-12T15:06:09.786Z,26.8
2022-09-12T15:08:18.428Z,26.8
2022-09-12T15:10:24.368Z,27.1
2022-09-12T15:14:36.272Z,27.9
2022-09-12T15:16:42.225Z,28.6
2022-09-12T15:18:48.274Z,29.3
2022-09-12T15:20:54.338Z,30.6
2022-09-12T15:23:02.964Z,29.9
2022-09-12T15:25:08.990Z,29.8
2022-09-12T15:27:15.030Z,29.9
2022-09-12T15:29:20.972Z,29.4
2022-09-12T15:33:32.838Z,29.2
2022-09-12T15:39:53.380Z,28.9
2022-09-12T15:44:24.119Z,28.3
2022-09-12T15:46:30.139Z,28
2022-09-12T15:48:36.013Z,27.5
2022-09-12T15:50:44.651Z,27.5
2022-09-12T15:52:50.763Z,27.2
2022-09-12T15:54:56.533Z,26.9
2022-09-12T15:57:02.461Z,27.5
2022-09-12T16:01:14.388Z,26.4
2022-09-12T16:03:20.425Z,26.5
2022-09-12T16:05:29.151Z,25.7
2022-09-12T16:07:35.228Z,25.5
2022-09-12T16:11:47.277Z,25.1
2022-09-12T16:13:53.352Z,25
2022-09-12T16:15:59.478Z,24.8
2022-09-12T16:18:05.508Z,24.7
2022-09-12T16:20:14.400Z,24.5
2022-09-12T16:22:20.511Z,24.4
2022-09-12T16:24:26.607Z,24.4
2022-09-12T16:26:32.700Z,24.6
2022-09-12T16:28:38.809Z,24.6
2022-09-12T16:30:44.901Z,24.4
2022-09-12T16:34:59.889Z,24.1
2022-09-12T16:37:06.018Z,24.1
2022-09-12T16:39:12.112Z,24.2
2022-09-12T16:40:16.640Z,24.2
2022-09-12T16:42:22.702Z,24.2
2022-09-12T16:44:28.828Z,24
2022-09-12T16:46:34.979Z,23.9
2022-09-12T16:48:46.811Z,23.7
2022-09-12T16:50:50.024Z,23.7
2022-09-12T16:52:56.164Z,23.6
2022-09-12T16:55:02.284Z,23.5
2022-09-12T16:57:08.426Z,23.3
2022-09-12T16:59:14.581Z,23.2
2022-09-12T17:01:20.777Z,23
2022-09-12T17:03:29.635Z,22.8
2022-09-12T17:05:35.768Z,22.8
2022-09-12T17:07:41.947Z,22.8
2022-09-12T17:11:54.246Z,22.6
2022-09-12T17:14:05.419Z,22.6
2022-09-12T17:16:06.719Z,22.5
2022-09-12T17:18:15.508Z,22.4
2022-09-12T17:20:21.663Z,22.4
2022-09-12T17:22:27.850Z,22.4
2022-09-12T17:24:34.017Z,22.3
2022-09-12T17:26:40.174Z,22.2
2022-09-12T17:28:46.370Z,22.1
2022-09-12T17:30:52.606Z,21.9
2022-09-12T17:33:01.487Z,21.7
2022-09-12T17:35:07.675Z,21.6
2022-09-12T17:37:13.856Z,21.4
2022-09-12T17:38:21.115Z,21.3
2022-09-12T17:40:42.491Z,21.2
2022-09-12T17:42:30.737Z,21.1
2022-09-12T17:46:45.947Z,20.9
2022-09-12T17:48:52.086Z,20.8
2022-09-12T17:50:58.262Z,20.8
2022-09-12T17:53:04.482Z,20.7
2022-09-12T17:55:10.672Z,20.6
2022-09-12T17:57:16.874Z,20.5
2022-09-12T17:59:23.084Z,20.4
2022-09-12T18:01:32.156Z,20.4
2022-09-12T18:03:38.271Z,20.4
2022-09-12T18:05:44.633Z,20.4
2022-09-12T18:07:50.702Z,20.3
2022-09-12T18:09:56.927Z,20.3
2022-09-12T18:12:03.151Z,20.3
2022-09-12T18:14:11.356Z,20.2
2022-09-12T18:16:18.399Z,20
2022-09-12T18:20:30.775Z,19.9
2022-09-12T18:26:49.427Z,19.6
2022-09-12T18:28:55.617Z,19.6
2022-09-12T18:31:04.676Z,19.5
2022-09-12T18:33:10.806Z,19.5
2022-09-12T18:35:17.021Z,19.5
2022-09-12T18:36:21.517Z,19.4
2022-09-12T18:38:27.724Z,19.4
2022-09-12T18:42:40.125Z,19.2
2022-09-12T18:44:49.116Z,19.2
2022-09-12T18:46:55.305Z,19.2
2022-09-12T18:49:01.508Z,19.2
2022-09-12T18:51:07.713Z,19.2
2022-09-12T18:53:13.936Z,19.1
2022-09-12T18:55:20.164Z,19.1
2022-09-12T18:57:26.370Z,19.1
2022-09-12T18:59:35.336Z,19.1
2022-09-12T19:01:41.708Z,19.1
2022-09-12T19:03:47.972Z,19
2022-09-12T19:05:54.002Z,19
2022-09-12T19:14:21.631Z,18.9
2022-09-12T19:16:27.832Z,18.9
2022-09-12T19:18:34.066Z,18.8
2022-09-12T19:22:46.504Z,18.9
2022-09-12T19:24:52.730Z,19
2022-09-12T19:26:58.971Z,19.2
2022-09-12T19:29:07.956Z,19.3
2022-09-12T19:31:14.254Z,19.3
2022-09-12T19:33:20.395Z,19.2
2022-09-12T19:39:58.463Z,18.7
2022-09-12T19:42:07.396Z,18.6
2022-09-12T19:44:13.636Z,18.5
2022-09-12T19:46:19.961Z,18.5
2022-09-12T19:48:27.670Z,18.4
2022-09-12T19:50:33.889Z,18.3
2022-09-12T19:52:40.099Z,18.3
2022-09-12T19:54:46.403Z,18.2
2022-09-12T19:56:55.375Z,18.2
2022-09-12T19:59:01.691Z,18.1
2022-09-12T20:01:07.958Z,18.1
2022-09-12T20:03:14.152Z,18
2022-09-12T20:05:20.404Z,17.9
2022-09-12T20:07:26.629Z,17.9
2022-09-12T20:09:32.872Z,17.9
2022-09-12T20:11:41.898Z,17.8
2022-09-12T20:13:48.129Z,17.8
2022-09-12T20:18:00.642Z,17.9
2022-09-12T20:20:06.915Z,17.9
2022-09-12T20:24:19.434Z,18.1
2022-09-12T20:26:28.414Z,18.2
2022-09-12T20:28:34.692Z,18.3
2022-09-12T20:31:45.465Z,18.3
2022-09-12T20:33:52.225Z,18.4
2022-09-12T20:35:57.971Z,18.4
2022-09-12T20:38:04.220Z,18.5
2022-09-12T20:40:13.270Z,18.6
2022-09-12T20:42:19.519Z,18.6
2022-09-12T20:44:25.760Z,18.5
2022-09-12T20:46:32.081Z,18.4
2022-09-12T20:48:38.269Z,18.3
2022-09-12T20:50:44.537Z,18.2
2022-09-12T20:52:50.779Z,18.2
2022-09-12T20:54:59.792Z,18.1
2022-09-12T20:57:06.050Z,18.1
2022-09-12T20:59:12.300Z,17.9
2022-09-12T21:01:18.590Z,17.8
2022-09-12T21:03:24.836Z,17.7
2022-09-12T21:05:31.096Z,17.7
2022-09-12T21:07:37.358Z,17.6
2022-09-12T21:11:52.631Z,17.5
2022-09-12T21:13:58.930Z,17.5
2022-09-12T21:16:05.343Z,17.4
2022-09-12T21:18:11.411Z,17.5
2022-09-12T21:20:17.668Z,17.4
2022-09-12T21:24:32.970Z,17.4
2022-09-12T21:26:39.254Z,17.4
2022-09-12T21:28:45.476Z,17.5
2022-09-12T21:38:17.834Z,17.6
2022-09-12T21:42:30.355Z,17.7
2022-09-12T21:46:42.978Z,17.8
2022-09-12T21:48:49.177Z,17.9
2022-09-12T22:01:29.573Z,18.1
2022-09-12T22:07:51.104Z,18.2
2022-09-12T22:09:57.359Z,18.2
2022-09-12T22:12:03.775Z,18.2
2022-09-12T22:14:09.893Z,18.2
2022-09-12T22:16:16.210Z,18.2
2022-09-12T22:18:22.409Z,18.2
2022-09-12T22:20:28.696Z,18.2
2022-09-12T22:22:37.714Z,18.2
2022-09-12T22:24:43.958Z,18.2
2022-09-12T22:30:00.980Z,18.3
2022-09-12T22:34:13.501Z,18.3
2022-09-12T22:36:22.495Z,18.4
2022-09-12T22:38:28.751Z,18.4
2022-09-12T22:40:35.023Z,18.4
2022-09-12T22:42:41.300Z,18.4
2022-09-12T22:44:47.588Z,18.5
2022-09-12T22:46:53.913Z,18.5
2022-09-12T22:49:00.101Z,18.5
2022-09-12T22:55:21.603Z,18.6
2022-09-12T22:57:27.855Z,18.5
2022-09-12T22:59:34.113Z,18.5
2022-09-12T23:08:01.852Z,18.5
2022-09-12T23:10:08.123Z,18.5
2022-09-12T23:14:20.640Z,18.4
2022-09-12T23:16:26.967Z,18.4
2022-09-12T23:18:33.192Z,18.4
2022-09-12T23:20:42.170Z,18.4
2022-09-12T23:22:48.422Z,18.4
2022-09-12T23:27:20.275Z,18.3
2022-09-12T23:29:26.486Z,18.3
2022-09-12T23:31:32.798Z,18.3
2022-09-12T23:33:41.765Z,18.3
2022-09-12T23:35:48.056Z,18.3
2022-09-12T23:37:54.287Z,18.3
2022-09-12T23:40:00.562Z,18.3
2022-09-12T23:42:06.758Z,18.3
2022-09-12T23:44:13.010Z,18.3
2022-09-12T23:46:19.241Z,18.3
2022-09-12T23:48:28.244Z,18.4
2022-09-12T23:50:34.513Z,18.4
2022-09-12T23:52:40.755Z,18.5
2022-09-12T23:54:47.017Z,18.5
2022-09-12T23:56:53.241Z,18.4
2022-09-12T23:58:59.481Z,18.5
